createdAt,value
2018-10-11T00:00:22.893Z,38.90
2018-10-11T00:02:28.315Z,29.83
2018-10-11T00:04:34.093Z,21.73
2018-10-11T00:06:39.120Z,18.90
2018-10-11T00:08:44.421Z,18.37
2018-10-11T00:10:49.616Z,17.30
2018-10-11T00:12:55.198Z,15.07
2018-10-11T00:15:00.189Z,13.67
2018-10-11T00:17:05.115Z,11.73
2018-10-11T00:19:09.818Z,11.60
2018-10-11T00:21:14.788Z,10.77
2018-10-11T00:23:19.926Z,11.00
2018-10-11T00:25:25.035Z,8.17
2018-10-11T00:27:30.153Z,7.77
2018-10-11T00:29:35.744Z,7.27
2018-10-11T00:31:41.121Z,7.53
2018-10-11T00:33:46.625Z,6.97
2018-10-11T00:35:52.953Z,6.83
2018-10-11T00:37:58.731Z,5.53
2018-10-11T00:40:04.113Z,6.03
2018-10-11T00:42:09.731Z,5.33
2018-10-11T00:44:16.737Z,4.10
2018-10-11T00:46:21.908Z,4.57
2018-10-11T00:48:27.582Z,4.73
2018-10-11T00:50:33.006Z,3.80
2018-10-11T00:52:38.626Z,4.57
2018-10-11T00:54:43.787Z,4.70
2018-10-11T00:56:49.094Z,4.27
2018-10-11T00:58:54.980Z,3.50
2018-10-11T01:01:00.569Z,4.03
2018-10-11T01:03:06.714Z,3.50
2018-10-11T01:05:12.705Z,3.57
2018-10-11T01:07:19.047Z,3.23
2018-10-11T01:09:25.362Z,4.23
2018-10-11T01:11:31.023Z,3.07
2018-10-11T01:13:36.726Z,3.13
2018-10-11T01:15:42.422Z,2.50
2018-10-11T01:17:48.605Z,2.10
2018-10-11T01:19:54.158Z,2.50
2018-10-11T01:21:59.390Z,2.00
2018-10-11T01:24:05.291Z,2.53
2018-10-11T01:26:10.367Z,2.00
2018-10-11T01:28:16.761Z,2.10
2018-10-11T01:30:22.413Z,2.10
2018-10-11T01:32:28.119Z,1.80
2018-10-11T01:34:34.462Z,1.80
2018-10-11T01:36:39.777Z,1.80
2018-10-11T01:38:46.147Z,3.43
2018-10-11T01:40:51.735Z,2.30
2018-10-11T01:42:57.977Z,2.93
2018-10-11T01:45:03.976Z,2.70
2018-10-11T01:47:09.794Z,3.17
2018-10-11T01:49:16.063Z,2.10
2018-10-11T01:51:21.795Z,2.80
2018-10-11T01:53:27.458Z,2.20
2018-10-11T01:55:33.001Z,2.43
2018-10-11T01:57:38.740Z,2.67
2018-10-11T01:59:44.444Z,2.30
2018-10-11T02:01:50.832Z,2.20
2018-10-11T02:03:56.703Z,2.10
2018-10-11T02:06:02.042Z,2.97
2018-10-11T02:08:08.044Z,3.60
2018-10-11T02:10:13.544Z,3.70
2018-10-11T02:12:19.012Z,3.97
2018-10-11T02:14:25.111Z,4.83
2018-10-11T02:16:30.972Z,3.80
2018-10-11T02:18:36.794Z,4.27
2018-10-11T02:20:42.269Z,4.50
2018-10-11T02:22:47.704Z,4.40
2018-10-11T02:24:53.629Z,4.40
2018-10-11T02:26:59.600Z,4.70
2018-10-11T02:31:14.953Z,4.27
2018-10-11T02:33:20.650Z,5.57
2018-10-11T02:35:26.321Z,6.03
2018-10-11T02:37:31.702Z,5.30
2018-10-11T02:39:37.432Z,5.60
2018-10-11T02:41:43.429Z,6.27
2018-10-11T02:43:48.863Z,5.63
2018-10-11T02:45:55.072Z,6.40
2018-10-11T02:48:01.141Z,6.17
2018-10-11T02:50:06.982Z,6.20
2018-10-11T02:52:12.560Z,6.40
2018-10-11T02:54:18.025Z,6.43
2018-10-11T02:56:24.028Z,6.13
2018-10-11T02:58:29.727Z,6.43
2018-10-11T03:00:34.955Z,6.43
2018-10-11T03:02:40.316Z,7.57
2018-10-11T03:04:45.809Z,6.67
2018-10-11T03:06:52.573Z,6.63
2018-10-11T03:08:58.625Z,6.10
2018-10-11T03:11:04.805Z,6.90
2018-10-11T03:13:10.352Z,6.50
2018-10-11T03:15:16.396Z,6.37
2018-10-11T03:17:22.108Z,6.60
2018-10-11T03:19:29.478Z,6.77
2018-10-11T03:21:34.736Z,6.30
2018-10-11T03:23:40.696Z,6.63
2018-10-11T03:25:47.444Z,6.73
2018-10-11T03:27:53.280Z,7.40
2018-10-11T03:29:58.748Z,7.20
2018-10-11T03:32:04.797Z,7.47
2018-10-11T03:34:10.529Z,7.17
2018-10-11T03:36:16.062Z,8.03
2018-10-11T03:38:21.430Z,6.30
2018-10-11T03:40:27.047Z,8.03
2018-10-11T03:42:32.712Z,6.83
2018-10-11T03:44:38.203Z,7.73
2018-10-11T03:46:44.026Z,7.57
2018-10-11T03:48:49.664Z,8.47
2018-10-11T03:50:55.490Z,7.90
2018-10-11T03:53:02.285Z,7.10
2018-10-11T03:55:07.368Z,7.90
2018-10-11T03:57:13.406Z,8.20
2018-10-11T03:59:19.183Z,8.20
2018-10-11T04:01:24.523Z,8.33
2018-10-11T04:03:30.698Z,8.07
2018-10-11T04:05:36.326Z,7.40
2018-10-11T04:07:42.546Z,8.10
2018-10-11T04:09:47.736Z,8.20
2018-10-11T04:11:53.188Z,7.90
2018-10-11T04:13:59.381Z,7.57
2018-10-11T04:16:04.600Z,7.90
2018-10-11T04:18:09.810Z,8.17
2018-10-11T04:20:15.569Z,8.10
2018-10-11T04:22:21.106Z,8.97
2018-10-11T04:24:26.823Z,7.83
2018-10-11T04:26:32.295Z,7.50
2018-10-11T04:28:37.677Z,8.63
2018-10-11T04:30:43.233Z,8.40
2018-10-11T04:32:48.844Z,7.77
2018-10-11T04:34:53.873Z,7.97
2018-10-11T04:37:00.895Z,8.53
2018-10-11T04:39:07.371Z,8.60
2018-10-11T04:41:13.074Z,7.87
2018-10-11T04:43:18.579Z,8.10
2018-10-11T04:45:24.145Z,8.07
2018-10-11T04:47:29.781Z,7.70
2018-10-11T04:49:36.442Z,7.73
2018-10-11T04:51:41.718Z,8.60
2018-10-11T04:53:47.711Z,9.33
2018-10-11T04:55:53.447Z,9.03
2018-10-11T04:57:59.163Z,7.80
2018-10-11T05:00:05.027Z,7.97
2018-10-11T05:02:10.864Z,9.60
2018-10-11T05:04:16.600Z,8.90
2018-10-11T05:06:22.130Z,9.10
2018-10-11T05:08:27.131Z,8.47
2018-10-11T05:10:32.575Z,7.53
2018-10-11T05:12:37.984Z,8.93
2018-10-11T05:14:45.100Z,8.53
2018-10-11T05:16:50.854Z,7.90
2018-10-11T05:18:56.193Z,8.43
2018-10-11T05:21:02.326Z,8.00
2018-10-11T05:23:07.988Z,7.87
2018-10-11T05:25:13.378Z,9.00
2018-10-11T05:27:18.872Z,8.53
2018-10-11T05:29:25.031Z,8.67
2018-10-11T05:31:30.688Z,9.40
2018-10-11T05:33:36.247Z,9.03
2018-10-11T05:35:41.831Z,8.57
2018-10-11T05:37:47.276Z,8.43
2018-10-11T05:39:52.694Z,8.20
2018-10-11T05:41:58.224Z,9.63
2018-10-11T05:44:03.902Z,8.37
2018-10-11T05:46:09.439Z,8.23
2018-10-11T05:48:15.015Z,8.90
2018-10-11T05:50:20.592Z,8.50
2018-10-11T05:52:26.012Z,7.80
2018-10-11T05:54:31.915Z,8.20
2018-10-11T05:56:37.440Z,8.57
2018-10-11T05:58:45.054Z,8.13
2018-10-11T06:00:50.647Z,8.93
2018-10-11T06:02:56.215Z,8.33
2018-10-11T06:05:01.624Z,8.43
2018-10-11T06:07:09.137Z,8.67
2018-10-11T06:09:14.783Z,8.47
2018-10-11T06:11:20.423Z,8.37
2018-10-11T06:13:26.003Z,8.93
2018-10-11T06:15:31.803Z,9.03
2018-10-11T06:17:37.364Z,8.73
2018-10-11T06:19:43.158Z,8.30
2018-10-11T06:21:49.426Z,9.13
2018-10-11T06:23:54.927Z,8.60
2018-10-11T06:26:00.172Z,8.90
2018-10-11T06:28:05.646Z,8.30
2018-10-11T06:30:11.240Z,8.50
2018-10-11T06:32:17.256Z,8.27
2018-10-11T06:34:22.577Z,9.77
2018-10-11T06:36:28.320Z,9.10
2018-10-11T06:38:33.738Z,8.23
2018-10-11T06:40:39.088Z,7.50
2018-10-11T06:42:44.498Z,8.70
2018-10-11T06:44:50.011Z,8.57
2018-10-11T06:46:55.723Z,8.63
2018-10-11T06:49:01.320Z,8.20
2018-10-11T06:51:06.160Z,8.83
2018-10-11T06:53:12.147Z,8.70
2018-10-11T06:55:17.311Z,8.23
2018-10-11T06:57:22.999Z,9.70
2018-10-11T06:59:28.983Z,8.20
2018-10-11T07:01:34.515Z,9.50
2018-10-11T07:03:40.384Z,9.13
2018-10-11T07:05:46.116Z,8.47
2018-10-11T07:07:51.826Z,8.97
2018-10-11T07:09:57.233Z,8.80
2018-10-11T07:12:02.508Z,8.80
2018-10-11T07:14:08.298Z,8.57
2018-10-11T07:16:13.680Z,8.90
2018-10-11T07:18:19.391Z,8.00
2018-10-11T07:20:25.350Z,9.00
2018-10-11T07:22:30.867Z,8.77
2018-10-11T07:24:36.404Z,8.03
2018-10-11T07:26:42.025Z,8.33
2018-10-11T07:28:47.665Z,9.10
2018-10-11T07:30:53.148Z,8.33
2018-10-11T07:32:58.780Z,9.23
2018-10-11T07:35:04.215Z,8.53
2018-10-11T07:37:10.181Z,8.90
2018-10-11T07:39:15.949Z,8.83
2018-10-11T07:41:21.597Z,8.90
2018-10-11T07:43:27.385Z,9.00
2018-10-11T07:45:32.855Z,8.93
2018-10-11T07:47:38.190Z,8.63
2018-10-11T07:49:44.142Z,8.00
2018-10-11T07:51:49.769Z,8.33
2018-10-11T07:53:55.771Z,9.57
2018-10-11T07:56:00.916Z,10.03
2018-10-11T07:58:06.454Z,8.40
2018-10-11T08:00:14.358Z,8.03
2018-10-11T08:02:20.173Z,8.73
2018-10-11T08:04:25.979Z,8.83
2018-10-11T08:06:32.369Z,8.33
2018-10-11T08:08:38.582Z,8.40
2018-10-11T08:10:44.323Z,8.73
2018-10-11T08:12:50.216Z,8.53
2018-10-11T08:14:55.857Z,8.60
2018-10-11T08:17:01.846Z,8.40
2018-10-11T08:19:07.899Z,8.50
2018-10-11T08:21:13.879Z,9.77
2018-10-11T08:23:19.500Z,8.63
2018-10-11T08:25:25.726Z,9.10
2018-10-11T08:27:31.080Z,8.60
2018-10-11T08:29:36.535Z,9.93
2018-10-11T08:31:42.311Z,9.23
2018-10-11T08:33:47.868Z,9.20
2018-10-11T08:35:53.167Z,9.80
2018-10-11T08:37:58.761Z,8.13
2018-10-11T08:40:04.448Z,8.60
2018-10-11T08:42:10.360Z,8.03
2018-10-11T08:44:16.571Z,8.70
2018-10-11T08:46:22.418Z,8.87
2018-10-11T08:48:28.409Z,8.33
2018-10-11T08:50:34.136Z,8.57
2018-10-11T08:52:39.508Z,8.50
2018-10-11T08:54:48.827Z,8.17
2018-10-11T08:56:54.310Z,8.80
2018-10-11T08:58:59.833Z,8.30
2018-10-11T09:01:05.396Z,6.80
2018-10-11T09:03:11.012Z,8.03
2018-10-11T09:05:16.725Z,7.63
2018-10-11T09:07:22.475Z,7.67
2018-10-11T09:09:28.030Z,8.10
2018-10-11T09:11:33.444Z,6.70
2018-10-11T09:13:39.194Z,7.93
2018-10-11T09:15:44.604Z,7.97
2018-10-11T09:17:50.107Z,8.40
2018-10-11T09:19:56.172Z,80.47
2018-10-11T09:22:02.226Z,36.93
2018-10-11T09:24:07.737Z,54.50
2018-10-11T09:26:13.527Z,34.17
2018-10-11T09:28:19.003Z,33.90
2018-10-11T09:30:24.662Z,33.00
2018-10-11T09:32:31.027Z,579.33
2018-10-11T09:34:36.737Z,227.87
2018-10-11T09:36:43.102Z,104.70
2018-10-11T09:38:48.599Z,82.90
2018-10-11T09:40:54.404Z,84.50
2018-10-11T09:42:59.658Z,54.83
2018-10-11T09:45:04.714Z,58.70
2018-10-11T09:47:10.326Z,54.17
2018-10-11T09:49:15.690Z,43.70
2018-10-11T09:51:20.895Z,36.50
2018-10-11T09:53:26.388Z,40.77
2018-10-11T09:55:31.813Z,41.53
2018-10-11T09:57:39.591Z,30.13
2018-10-11T09:59:45.723Z,26.53
2018-10-11T10:01:51.724Z,22.83
2018-10-11T10:03:57.524Z,22.23
2018-10-11T10:06:02.910Z,19.30
2018-10-11T10:08:08.885Z,19.90
2018-10-11T10:10:15.375Z,17.30
2018-10-11T10:12:21.614Z,16.97
2018-10-11T10:14:27.221Z,14.67
2018-10-11T10:16:32.247Z,15.03
2018-10-11T10:18:38.036Z,14.93
2018-10-11T10:20:44.425Z,13.70
2018-10-11T10:22:49.850Z,14.30
2018-10-11T10:24:55.985Z,13.10
2018-10-11T10:27:01.090Z,12.37
2018-10-11T10:29:06.909Z,11.83
2018-10-11T10:31:12.282Z,12.20
2018-10-11T10:33:18.124Z,14.23
2018-10-11T10:35:23.976Z,10.20
2018-10-11T10:37:30.051Z,11.27
2018-10-11T10:39:35.277Z,10.83
2018-10-11T10:41:40.847Z,12.17
2018-10-11T10:43:46.791Z,11.47
2018-10-11T10:45:51.977Z,10.07
2018-10-11T10:47:57.602Z,9.70
2018-10-11T10:50:03.659Z,11.00
2018-10-11T10:52:09.386Z,10.40
2018-10-11T10:54:19.516Z,10.80
2018-10-11T10:56:25.405Z,9.33
2018-10-11T10:58:30.969Z,11.80
2018-10-11T11:00:36.886Z,11.00
2018-10-11T11:02:42.527Z,10.03
2018-10-11T11:04:52.944Z,10.17
2018-10-11T11:06:59.144Z,9.70
2018-10-11T11:09:05.326Z,11.03
2018-10-11T11:11:11.235Z,9.43
2018-10-11T11:13:17.206Z,9.97
2018-10-11T11:15:22.876Z,10.13
2018-10-11T11:17:28.953Z,10.10
2018-10-11T11:19:34.857Z,9.70
2018-10-11T11:21:40.677Z,8.90
2018-10-11T11:23:47.279Z,9.10
2018-10-11T11:25:52.874Z,9.60
2018-10-11T11:27:58.738Z,9.30
2018-10-11T11:30:03.946Z,8.67
2018-10-11T11:32:10.177Z,9.60
2018-10-11T11:34:16.045Z,8.73
2018-10-11T11:36:21.914Z,9.60
2018-10-11T11:38:28.021Z,9.33
2018-10-11T11:40:33.597Z,8.10
2018-10-11T11:42:39.400Z,8.60
2018-10-11T11:44:44.821Z,8.23
2018-10-11T11:46:50.382Z,7.87
2018-10-11T11:48:55.816Z,8.57
2018-10-11T11:51:02.003Z,7.87
2018-10-11T11:53:07.649Z,8.23
2018-10-11T11:55:13.411Z,7.60
2018-10-11T11:57:19.196Z,7.20
2018-10-11T11:59:24.626Z,7.17
2018-10-11T12:01:30.252Z,7.67
2018-10-11T12:03:35.780Z,7.53
2018-10-11T12:05:41.639Z,6.80
2018-10-11T12:07:47.569Z,7.30
2018-10-11T12:09:53.652Z,7.13
2018-10-11T12:11:59.395Z,7.20
2018-10-11T12:14:04.617Z,7.00
2018-10-11T12:16:10.078Z,7.33
2018-10-11T12:18:16.020Z,7.30
2018-10-11T12:20:22.393Z,6.20
2018-10-11T12:22:27.975Z,6.80
2018-10-11T12:24:33.492Z,6.57
2018-10-11T12:26:39.078Z,6.00
2018-10-11T12:28:44.612Z,7.20
2018-10-11T12:30:50.829Z,5.70
2018-10-11T12:32:56.834Z,6.00
2018-10-11T12:35:02.927Z,6.90
2018-10-11T12:37:08.507Z,7.20
2018-10-11T12:39:14.580Z,5.93
2018-10-11T12:41:20.547Z,6.30
2018-10-11T12:43:26.012Z,6.40
2018-10-11T12:45:31.338Z,6.00
2018-10-11T12:47:36.980Z,6.67
2018-10-11T12:49:45.360Z,6.30
2018-10-11T12:51:49.011Z,6.20
2018-10-11T12:56:25.026Z,5.90
2018-10-11T12:58:30.220Z,6.23
2018-10-11T13:00:35.796Z,6.10
2018-10-11T13:02:41.508Z,6.30
2018-10-11T13:04:47.022Z,5.70
2018-10-11T13:06:52.594Z,5.33
2018-10-11T13:08:57.847Z,5.43
2018-10-11T13:14:11.618Z,5.33
2018-10-11T13:16:16.967Z,5.70
2018-10-11T13:18:22.274Z,6.00
2018-10-11T13:20:27.882Z,6.17
2018-10-11T13:22:33.318Z,5.83
2018-10-11T13:24:41.757Z,5.33
2018-10-11T13:26:43.701Z,5.20
2018-10-11T13:28:49.395Z,5.63
2018-10-11T13:30:55.206Z,5.90
2018-10-11T13:33:00.669Z,6.20
2018-10-11T13:35:06.041Z,5.80
2018-10-11T13:37:12.165Z,6.00
2018-10-11T13:39:17.153Z,5.57
2018-10-11T13:41:22.911Z,8.80
2018-10-11T13:43:29.672Z,18.37
2018-10-11T13:45:35.334Z,297.20
2018-10-11T13:47:44.859Z,354.30
2018-10-11T13:49:46.758Z,161.93
2018-10-11T13:51:52.544Z,193.77
2018-10-11T13:53:58.792Z,175.80
2018-10-11T13:56:04.099Z,157.73
2018-10-11T13:58:09.496Z,140.83
2018-10-11T14:00:15.114Z,126.80
2018-10-11T14:02:21.070Z,110.63
2018-10-11T14:04:26.688Z,91.97
2018-10-11T14:06:31.995Z,91.63
2018-10-11T14:08:37.254Z,81.07
2018-10-11T14:10:42.888Z,75.80
2018-10-11T14:12:48.221Z,75.37
2018-10-11T14:14:53.652Z,66.50
2018-10-11T14:16:58.827Z,65.07
2018-10-11T14:19:03.636Z,62.70
2018-10-11T14:21:10.071Z,59.27
2018-10-11T14:23:15.571Z,56.43
2018-10-11T14:25:20.711Z,55.90
2018-10-11T14:27:26.798Z,53.10
2018-10-11T14:29:32.380Z,51.03
2018-10-11T14:31:37.734Z,49.20
2018-10-11T14:33:43.574Z,50.10
2018-10-11T14:35:49.105Z,46.33
2018-10-11T14:37:54.973Z,43.57
2018-10-11T14:40:00.636Z,46.43
2018-10-11T14:42:05.949Z,42.67
2018-10-11T14:44:11.837Z,43.53
2018-10-11T14:46:17.361Z,39.07
2018-10-11T14:48:23.562Z,39.60
2018-10-11T14:50:28.810Z,38.50
2018-10-11T14:52:34.645Z,37.83
2018-10-11T14:54:43.966Z,35.07
2018-10-11T14:56:49.440Z,35.90
2018-10-11T14:58:55.260Z,34.13
2018-10-11T15:01:00.980Z,34.97
2018-10-11T15:03:06.172Z,33.73
2018-10-11T15:05:11.864Z,33.03
2018-10-11T15:07:17.687Z,33.10
2018-10-11T15:09:23.246Z,30.63
2018-10-11T15:11:29.844Z,29.10
2018-10-11T15:13:35.920Z,28.03
2018-10-11T15:15:41.201Z,29.07
2018-10-11T15:17:47.847Z,27.83
2018-10-11T15:19:53.712Z,28.93
2018-10-11T15:21:59.432Z,26.37
2018-10-11T15:24:04.998Z,27.50
2018-10-11T15:26:10.766Z,27.10
2018-10-11T15:28:16.360Z,25.20
2018-10-11T15:30:21.916Z,24.33
2018-10-11T15:32:27.146Z,25.43
2018-10-11T15:34:32.910Z,24.43
2018-10-11T15:36:38.903Z,24.53
2018-10-11T15:38:44.683Z,22.70
2018-10-11T15:40:50.045Z,23.30
2018-10-11T15:42:55.422Z,24.10
2018-10-11T15:45:00.831Z,21.40
2018-10-11T15:47:06.543Z,21.87
2018-10-11T15:49:12.158Z,21.63
2018-10-11T15:51:18.149Z,20.30
2018-10-11T15:53:23.861Z,21.93
2018-10-11T15:55:29.725Z,20.47
2018-10-11T15:57:35.745Z,19.23
2018-10-11T15:59:41.372Z,18.40
2018-10-11T16:01:46.805Z,18.37
2018-10-11T16:03:52.287Z,19.50
2018-10-11T16:05:57.760Z,20.20
2018-10-11T16:08:03.285Z,19.03
2018-10-11T16:10:09.065Z,17.33
2018-10-11T16:12:14.567Z,17.87
2018-10-11T16:14:20.059Z,17.47
2018-10-11T16:16:26.015Z,17.30
2018-10-11T16:18:31.658Z,16.40
2018-10-11T16:20:37.496Z,16.03
2018-10-11T16:22:43.425Z,15.40
2018-10-11T16:24:49.618Z,15.23
2018-10-11T16:26:55.205Z,16.20
2018-10-11T16:29:00.653Z,15.00
2018-10-11T16:31:36.199Z,14.10
2018-10-11T16:33:41.838Z,16.07
2018-10-11T16:35:47.439Z,14.80
2018-10-11T16:37:53.120Z,13.37
2018-10-11T16:39:58.254Z,14.23
2018-10-11T16:42:03.611Z,14.07
2018-10-11T16:44:09.166Z,13.53
2018-10-11T16:46:14.434Z,13.60
2018-10-11T16:48:19.862Z,12.23
2018-10-11T16:50:25.512Z,12.80
2018-10-11T16:52:30.664Z,12.40
2018-10-11T16:54:35.993Z,13.30
2018-10-11T16:56:41.432Z,12.87
2018-10-11T16:58:47.331Z,12.93
2018-10-11T17:00:53.005Z,12.87
2018-10-11T17:02:59.056Z,12.73
2018-10-11T17:05:04.599Z,11.40
2018-10-11T17:07:10.062Z,11.90
2018-10-11T17:09:16.010Z,10.60
2018-10-11T17:11:21.676Z,11.60
2018-10-11T17:13:27.001Z,12.30
2018-10-11T17:15:32.368Z,10.90
2018-10-11T17:17:38.181Z,11.17
2018-10-11T17:19:44.179Z,11.23
2018-10-11T17:21:49.341Z,12.20
2018-10-11T17:23:55.141Z,10.60
2018-10-11T17:26:00.517Z,11.60
2018-10-11T17:28:05.896Z,9.53
2018-10-11T17:30:11.685Z,9.63
2018-10-11T17:32:18.219Z,11.23
2018-10-11T17:34:23.565Z,10.13
2018-10-11T17:36:29.278Z,9.70
2018-10-11T17:38:35.420Z,11.00
2018-10-11T17:40:40.963Z,9.47
2018-10-11T17:42:46.568Z,9.93
2018-10-11T17:44:52.454Z,9.90
2018-10-11T17:46:57.994Z,9.33
2018-10-11T17:49:03.764Z,9.73
2018-10-11T17:51:11.035Z,8.83
2018-10-11T17:53:16.801Z,8.30
2018-10-11T17:55:22.465Z,9.50
2018-10-11T17:57:28.651Z,10.17
2018-10-11T17:59:34.305Z,8.27
2018-10-11T18:01:39.468Z,8.97
2018-10-11T18:03:44.892Z,9.33
2018-10-11T18:05:51.351Z,9.87
2018-10-11T18:07:56.886Z,9.33
2018-10-11T18:10:02.333Z,8.30
2018-10-11T18:12:07.504Z,9.47
2018-10-11T18:14:13.920Z,8.90
2018-10-11T18:16:19.641Z,8.50
2018-10-11T18:18:25.703Z,8.53
2018-10-11T18:20:31.292Z,9.07
2018-10-11T18:22:36.978Z,8.40
2018-10-11T18:24:42.698Z,8.43
2018-10-11T18:26:48.103Z,9.00
2018-10-11T18:28:53.768Z,8.57
2018-10-11T18:30:59.130Z,7.97
2018-10-11T18:33:04.809Z,7.90
2018-10-11T18:35:10.430Z,8.93
2018-10-11T18:37:15.736Z,7.73
2018-10-11T18:39:21.180Z,8.23
2018-10-11T18:41:26.577Z,8.70
2018-10-11T18:43:32.128Z,7.70
2018-10-11T18:45:37.662Z,8.20
2018-10-11T18:47:43.220Z,7.37
2018-10-11T18:49:48.629Z,8.10
2018-10-11T18:51:54.053Z,8.23
2018-10-11T18:53:59.478Z,7.67
2018-10-11T18:56:04.692Z,7.60
2018-10-11T18:58:10.427Z,7.90
2018-10-11T19:00:15.983Z,6.47
2018-10-11T19:02:21.846Z,8.20
2018-10-11T19:04:27.032Z,8.43
2018-10-11T19:06:32.805Z,7.80
2018-10-11T19:08:38.100Z,7.77
2018-10-11T19:10:43.572Z,7.73
2018-10-11T19:12:49.418Z,8.07
2018-10-11T19:14:54.732Z,6.80
2018-10-11T19:17:00.436Z,7.70
2018-10-11T19:19:06.183Z,7.20
2018-10-11T19:21:12.179Z,6.67
2018-10-11T19:23:18.418Z,7.87
2018-10-11T19:25:23.846Z,7.40
2018-10-11T19:27:29.167Z,7.20
2018-10-11T19:29:34.491Z,7.10
2018-10-11T19:31:39.753Z,7.70
2018-10-11T19:33:44.995Z,6.97
2018-10-11T19:35:50.546Z,7.00
2018-10-11T19:37:56.166Z,6.70
2018-10-11T19:40:05.205Z,8.00
2018-10-11T19:42:10.606Z,6.90
2018-10-11T19:44:16.392Z,6.77
2018-10-11T19:46:21.713Z,6.23
2018-10-11T19:48:27.367Z,7.17
2018-10-11T19:50:33.006Z,6.57
2018-10-11T19:52:40.249Z,6.03
2018-10-11T19:54:45.872Z,6.87
2018-10-11T19:56:51.389Z,6.43
2018-10-11T19:58:56.646Z,6.20
2018-10-11T20:01:02.018Z,7.07
2018-10-11T20:03:08.133Z,6.50
2018-10-11T20:05:13.590Z,6.40
2018-10-11T20:07:18.860Z,6.63
2018-10-11T20:09:24.306Z,6.60
2018-10-11T20:11:29.833Z,7.00
2018-10-11T20:13:35.333Z,6.77
2018-10-11T20:15:40.889Z,5.90
2018-10-11T20:17:46.448Z,7.13
2018-10-11T20:19:52.185Z,6.20
2018-10-11T20:21:57.627Z,7.57
2018-10-11T20:24:02.635Z,6.03
2018-10-11T20:26:08.759Z,6.50
2018-10-11T20:28:14.706Z,6.20
2018-10-11T20:30:20.129Z,6.40
2018-10-11T20:32:26.829Z,6.93
2018-10-11T20:34:32.492Z,7.00
2018-10-11T20:36:41.819Z,5.90
2018-10-11T20:38:47.446Z,6.37
2018-10-11T20:40:53.278Z,6.20
2018-10-11T20:42:58.832Z,6.13
2018-10-11T20:45:04.398Z,7.10
2018-10-11T20:47:09.627Z,7.07
2018-10-11T20:49:15.560Z,7.00
2018-10-11T20:51:21.138Z,6.47
2018-10-11T20:53:26.618Z,7.87
2018-10-11T20:55:31.965Z,6.70
2018-10-11T20:57:37.545Z,7.20
2018-10-11T20:59:43.116Z,6.43
2018-10-11T21:03:58.389Z,7.73
2018-10-11T21:06:04.452Z,7.10
2018-10-11T21:08:09.795Z,7.27
2018-10-11T21:10:15.465Z,6.20
2018-10-11T21:12:20.536Z,6.33
2018-10-11T21:14:25.598Z,6.70
2018-10-11T21:16:31.342Z,6.50
2018-10-11T21:18:37.311Z,6.57
2018-10-11T21:20:43.127Z,5.77
2018-10-11T21:22:49.759Z,6.20
2018-10-11T21:24:55.145Z,6.77
2018-10-11T21:27:00.591Z,7.00
2018-10-11T21:29:05.870Z,6.27
2018-10-11T21:31:11.585Z,7.00
2018-10-11T21:33:17.272Z,6.73
2018-10-11T21:35:22.718Z,6.80
2018-10-11T21:37:28.909Z,6.17
2018-10-11T21:39:34.493Z,7.00
2018-10-11T21:41:39.784Z,7.20
2018-10-11T21:43:45.070Z,6.37
2018-10-11T21:45:50.619Z,7.10
2018-10-11T21:47:57.341Z,6.80
2018-10-11T21:50:04.693Z,6.60
2018-10-11T21:52:09.978Z,6.60
2018-10-11T21:54:15.524Z,6.40
2018-10-11T21:56:21.163Z,7.20
2018-10-11T21:58:26.327Z,6.17
2018-10-11T22:00:35.643Z,6.60
2018-10-11T22:02:40.944Z,6.90
2018-10-11T22:04:46.987Z,6.80
2018-10-11T22:06:52.383Z,6.40
2018-10-11T22:08:57.731Z,6.90
2018-10-11T22:11:03.138Z,7.00
2018-10-11T22:13:08.462Z,6.73
2018-10-11T22:15:14.179Z,6.33
2018-10-11T22:17:19.632Z,7.23
2018-10-11T22:19:25.183Z,6.13
2018-10-11T22:21:30.673Z,6.60
2018-10-11T22:23:36.215Z,8.17
2018-10-11T22:25:41.517Z,8.23
2018-10-11T22:27:47.491Z,9.33
2018-10-11T22:29:53.058Z,10.10
2018-10-11T22:31:58.489Z,12.03
2018-10-11T22:34:04.396Z,12.13
2018-10-11T22:36:11.200Z,12.67
2018-10-11T22:38:16.740Z,13.03
2018-10-11T22:40:22.782Z,13.20
2018-10-11T22:42:28.482Z,13.53
2018-10-11T22:44:33.893Z,18.93
2018-10-11T22:46:39.556Z,21.67
2018-10-11T22:48:45.245Z,16.13
2018-10-11T22:50:50.491Z,17.00
2018-10-11T22:52:57.261Z,17.73
2018-10-11T22:55:03.004Z,15.20
2018-10-11T22:57:09.836Z,15.80
2018-10-11T22:59:15.201Z,15.97
2018-10-11T23:01:20.478Z,17.10
2018-10-11T23:03:26.027Z,15.17
2018-10-11T23:05:31.501Z,14.80
2018-10-11T23:07:36.976Z,15.90
2018-10-11T23:09:42.168Z,14.30
2018-10-11T23:11:47.613Z,14.67
2018-10-11T23:13:53.426Z,14.17
2018-10-11T23:15:58.969Z,15.03
2018-10-11T23:18:04.523Z,13.87
2018-10-11T23:20:10.089Z,13.57
2018-10-11T23:22:15.341Z,14.50
2018-10-11T23:24:20.936Z,14.73
2018-10-11T23:26:26.280Z,12.30
2018-10-11T23:28:31.481Z,13.33
2018-10-11T23:30:36.519Z,12.90
2018-10-11T23:32:42.932Z,13.80
2018-10-11T23:34:49.227Z,14.60
2018-10-11T23:36:54.737Z,14.97
2018-10-11T23:39:00.348Z,15.83
2018-10-11T23:41:05.429Z,16.77
2018-10-11T23:43:11.017Z,16.00
2018-10-11T23:45:16.528Z,14.63
2018-10-11T23:47:22.410Z,13.97
2018-10-11T23:49:27.660Z,15.00
2018-10-11T23:51:32.879Z,13.57
2018-10-11T23:53:38.275Z,14.00
2018-10-11T23:55:43.290Z,14.40
2018-10-11T23:57:48.667Z,12.73
2018-10-11T23:59:54.447Z,15.17
